createdAt,value
2022-11-01T00:01:02.048Z,63.84
2022-11-01T00:04:10.107Z,64.88
2022-11-01T00:07:15.302Z,64.28
2022-11-01T00:10:20.628Z,64.47
2022-11-01T00:13:25.855Z,64.87
2022-11-01T00:16:31.037Z,65.80
2022-11-01T00:19:42.292Z,65.97
2022-11-01T00:22:47.475Z,65.13
2022-11-01T00:25:52.685Z,65.62
2022-11-01T00:28:58.121Z,65.53
2022-11-01T00:32:03.391Z,65.60
2022-11-01T00:35:09.030Z,65.08
2022-11-01T00:38:14.958Z,64.77
2022-11-01T00:41:20.915Z,65.45
2022-11-01T00:44:26.280Z,65.75
2022-11-01T00:47:31.678Z,65.95
2022-11-01T00:50:40.139Z,65.85
2022-11-01T00:53:45.592Z,65.73
2022-11-01T00:56:50.830Z,65.46
2022-11-01T00:59:56.148Z,64.97
2022-11-01T01:03:01.817Z,65.24
2022-11-01T01:06:07.403Z,65.58
2022-11-01T01:09:15.406Z,65.99
2022-11-01T01:12:20.914Z,66.03
2022-11-01T01:15:26.081Z,65.54
2022-11-01T01:18:34.218Z,65.60
2022-11-01T01:21:39.474Z,65.06
2022-11-01T01:24:47.747Z,65.19
2022-11-01T01:27:53.114Z,65.35
2022-11-01T01:30:58.292Z,65.74
2022-11-01T01:34:05.858Z,65.94
2022-11-01T01:37:11.528Z,66.55
2022-11-01T01:40:17.059Z,66.69
2022-11-01T01:43:22.359Z,67.17
2022-11-01T01:46:27.801Z,66.94
2022-11-01T01:49:33.208Z,66.39
2022-11-01T01:52:41.818Z,65.91
2022-11-01T01:55:50.446Z,65.20
2022-11-01T01:58:56.881Z,64.55
2022-11-01T02:02:02.369Z,63.68
2022-11-01T02:05:11.472Z,62.92
2022-11-01T02:08:17.085Z,62.58
2022-11-01T02:11:22.589Z,62.65
2022-11-01T02:14:28.056Z,62.94
2022-11-01T02:17:39.597Z,62.88
2022-11-01T02:20:54.405Z,63.08
2022-11-01T02:24:25.794Z,64.02
2022-11-01T02:27:35.303Z,64.75
2022-11-01T02:30:45.905Z,64.60
2022-11-01T02:33:56.649Z,65.33
2022-11-01T02:37:04.931Z,65.42
2022-11-01T02:40:12.838Z,65.98
2022-11-01T02:43:20.559Z,65.79
2022-11-01T02:46:45.306Z,65.31
2022-11-01T02:49:52.782Z,65.03
2022-11-01T02:52:59.261Z,65.04
2022-11-01T02:56:04.702Z,65.19
2022-11-01T02:59:15.589Z,65.17
2022-11-01T03:02:39.829Z,65.69
2022-11-01T03:05:59.814Z,65.89
2022-11-01T03:09:06.092Z,66.21
2022-11-01T03:12:15.285Z,66.88
2022-11-01T03:15:26.369Z,67.07
2022-11-01T03:18:33.867Z,66.83
2022-11-01T03:21:42.368Z,66.26
2022-11-01T03:24:51.280Z,66.06
2022-11-01T03:27:57.549Z,65.98
2022-11-01T03:31:06.542Z,65.89
2022-11-01T03:34:14.057Z,66.26
2022-11-01T03:37:21.520Z,66.74
2022-11-01T03:40:28.833Z,67.14
2022-11-01T03:43:36.324Z,67.48
2022-11-01T03:46:41.733Z,67.76
2022-11-01T03:49:46.977Z,68.19
2022-11-01T03:52:52.353Z,67.66
2022-11-01T03:55:57.759Z,67.31
2022-11-01T03:59:03.213Z,67.27
2022-11-01T04:05:19.196Z,67.56
2022-11-01T04:08:24.493Z,67.33
2022-11-01T04:11:29.810Z,66.94
2022-11-01T04:14:52.573Z,66.91
2022-11-01T04:18:25.336Z,67.22
2022-11-01T04:21:32.373Z,67.93
2022-11-01T04:24:37.565Z,68.57
2022-11-01T04:27:42.757Z,69.01
2022-11-01T04:30:48.043Z,69.21
2022-11-01T04:33:53.324Z,69.45
2022-11-01T04:37:00.470Z,70.07
2022-11-01T04:40:07.510Z,70.54
2022-11-01T04:43:13.367Z,70.69
2022-11-01T04:46:18.597Z,70.67
2022-11-01T04:49:24.041Z,71.50
2022-11-01T04:52:29.527Z,70.88
2022-11-01T04:55:34.950Z,70.17
2022-11-01T04:58:44.732Z,69.75
2022-11-01T05:01:51.508Z,69.14
2022-11-01T05:04:56.901Z,68.41
2022-11-01T05:08:03.100Z,68.01
2022-11-01T05:11:08.772Z,67.79
2022-11-01T05:14:14.111Z,67.55
2022-11-01T05:17:19.702Z,67.21
2022-11-01T05:20:25.102Z,66.99
2022-11-01T05:23:30.244Z,66.79
2022-11-01T05:26:35.510Z,66.40
2022-11-01T05:29:40.920Z,66.04
2022-11-01T05:32:45.996Z,65.29
2022-11-01T05:35:51.248Z,64.84
2022-11-01T05:38:59.277Z,64.71
2022-11-01T05:42:07.339Z,64.22
2022-11-01T05:45:12.944Z,63.80
2022-11-01T05:48:18.218Z,63.53
2022-11-01T05:51:23.901Z,63.30
2022-11-01T05:54:29.163Z,63.31
2022-11-01T05:57:37.448Z,63.46
2022-11-01T06:00:42.783Z,63.56
2022-11-01T06:03:49.952Z,63.53
2022-11-01T06:06:55.173Z,63.53
2022-11-01T06:10:00.445Z,63.48
2022-11-01T06:13:05.924Z,63.47
2022-11-01T06:16:11.364Z,63.45
2022-11-01T06:19:17.925Z,63.31
2022-11-01T06:22:23.236Z,63.60
2022-11-01T06:25:29.965Z,63.64
2022-11-01T06:28:35.141Z,63.67
2022-11-01T06:31:40.478Z,63.63
2022-11-01T06:34:45.779Z,63.56
2022-11-01T06:37:50.897Z,63.59
2022-11-01T06:40:56.207Z,63.50
2022-11-01T06:44:01.492Z,63.52
2022-11-01T06:47:06.821Z,63.53
2022-11-01T06:50:12.157Z,63.43
2022-11-01T06:53:17.589Z,63.19
2022-11-01T06:56:23.003Z,62.97
2022-11-01T06:59:28.293Z,62.67
2022-11-01T07:02:33.608Z,62.62
2022-11-01T07:05:39.734Z,62.50
2022-11-01T07:08:44.993Z,62.43
2022-11-01T07:11:50.245Z,62.49
2022-11-01T07:14:55.542Z,62.41
2022-11-01T07:18:01.869Z,62.50
2022-11-01T07:21:07.623Z,62.72
2022-11-01T07:24:12.819Z,62.72
2022-11-01T07:27:20.817Z,62.82
2022-11-01T07:30:26.525Z,62.87
2022-11-01T07:33:31.750Z,62.92
2022-11-01T07:36:36.894Z,62.99
2022-11-01T07:39:42.162Z,62.89
2022-11-01T07:42:50.134Z,62.98
2022-11-01T07:45:59.414Z,62.77
2022-11-01T07:49:04.673Z,62.41
2022-11-01T07:52:09.988Z,62.37
2022-11-01T07:55:15.525Z,62.00
2022-11-01T07:58:20.777Z,61.62
2022-11-01T08:01:26.524Z,61.59
2022-11-01T08:04:31.778Z,61.06
2022-11-01T08:07:39.999Z,60.84
2022-11-01T08:10:45.219Z,60.41
2022-11-01T08:13:50.464Z,60.29
2022-11-01T08:17:00.710Z,60.32
2022-11-01T08:20:07.082Z,60.57
2022-11-01T08:23:12.795Z,60.33
2022-11-01T08:26:18.117Z,60.36
2022-11-01T08:29:23.211Z,60.34
2022-11-01T08:32:29.125Z,60.30
2022-11-01T08:35:34.744Z,60.01
2022-11-01T08:38:40.318Z,59.91
2022-11-01T08:41:48.429Z,59.36
2022-11-01T08:44:54.924Z,56.72
2022-11-01T08:48:00.922Z,56.76
2022-11-01T08:51:06.451Z,57.69
2022-11-01T08:54:12.272Z,66.07
2022-11-01T08:57:17.751Z,67.22
2022-11-01T09:00:22.997Z,65.33
2022-11-01T09:03:28.436Z,63.19
2022-11-01T09:06:36.311Z,61.89
2022-11-01T09:09:41.819Z,62.11
2022-11-01T09:12:47.051Z,62.13
2022-11-01T09:15:52.440Z,61.65
2022-11-01T09:19:01.764Z,60.69
2022-11-01T09:22:07.183Z,60.55
2022-11-01T09:25:12.965Z,61.23
2022-11-01T09:28:18.384Z,60.30
2022-11-01T09:31:23.708Z,60.41
2022-11-01T09:34:29.106Z,60.67
2022-11-01T09:37:35.659Z,61.41
2022-11-01T09:40:45.620Z,60.96
2022-11-01T09:43:53.245Z,60.40
2022-11-01T09:47:02.614Z,59.92
2022-11-01T09:50:16.870Z,60.26
2022-11-01T09:53:23.468Z,60.45
2022-11-01T09:56:30.634Z,61.12
2022-11-01T09:59:38.694Z,60.85
2022-11-01T10:02:58.094Z,61.61
2022-11-01T10:06:07.200Z,62.07
2022-11-01T10:09:17.007Z,61.36
2022-11-01T10:12:32.132Z,60.62
2022-11-01T10:15:44.022Z,60.39
2022-11-01T10:18:52.487Z,60.17
2022-11-01T10:22:01.276Z,61.09
2022-11-01T10:25:10.361Z,60.57
2022-11-01T10:28:19.693Z,60.48
2022-11-01T10:31:25.939Z,59.92
2022-11-01T10:34:36.142Z,57.83
2022-11-01T10:37:52.394Z,56.17
2022-11-01T10:41:14.222Z,57.87
2022-11-01T10:44:24.229Z,58.21
2022-11-01T10:47:29.463Z,66.50
2022-11-01T10:50:35.733Z,68.22
2022-11-01T10:53:44.273Z,67.00
2022-11-01T10:56:51.307Z,65.49
2022-11-01T10:59:58.190Z,64.76
2022-11-01T11:03:18.707Z,64.07
2022-11-01T11:06:23.988Z,62.96
2022-11-01T11:09:32.680Z,62.74
2022-11-01T11:12:37.906Z,62.75
2022-11-01T11:15:46.805Z,62.84
2022-11-01T11:19:02.368Z,61.94
2022-11-01T11:22:09.515Z,61.91
2022-11-01T11:25:17.590Z,61.60
2022-11-01T11:28:29.199Z,61.21
2022-11-01T11:31:35.816Z,60.88
2022-11-01T11:34:41.977Z,60.18
2022-11-01T11:37:54.045Z,59.78
2022-11-01T11:40:59.301Z,58.39
2022-11-01T11:44:04.502Z,58.43
2022-11-01T11:47:19.638Z,59.26
2022-11-01T11:50:32.272Z,67.28
2022-11-01T11:53:37.496Z,66.43
2022-11-01T11:56:45.099Z,63.87
2022-11-01T11:59:53.689Z,62.41
2022-11-01T12:03:02.218Z,61.84
2022-11-01T12:06:09.661Z,60.74
2022-11-01T12:09:28.374Z,59.62
2022-11-01T12:12:34.819Z,59.02
2022-11-01T12:15:41.471Z,56.09
2022-11-01T12:18:57.561Z,58.62
2022-11-01T12:22:04.353Z,59.10
2022-11-01T12:25:14.080Z,59.28
2022-11-01T12:28:25.688Z,63.33
2022-11-01T12:31:31.746Z,66.76
2022-11-01T12:34:41.577Z,65.04
2022-11-01T12:37:52.915Z,62.61
2022-11-01T12:41:00.516Z,60.93
2022-11-01T12:44:21.108Z,59.76
2022-11-01T12:47:29.339Z,56.86
2022-11-01T12:50:38.699Z,57.08
2022-11-01T12:53:45.617Z,58.05
2022-11-01T12:56:50.850Z,58.72
2022-11-01T12:59:56.592Z,61.31
2022-11-01T13:03:16.294Z,66.49
2022-11-01T13:06:37.137Z,65.62
2022-11-01T13:09:47.146Z,64.08
2022-11-01T13:12:58.563Z,63.14
2022-11-01T13:16:10.321Z,62.02
2022-11-01T13:19:19.546Z,61.10
2022-11-01T13:22:31.865Z,61.19
2022-11-01T13:25:41.693Z,60.35
2022-11-01T13:28:51.014Z,59.94
2022-11-01T13:32:02.189Z,59.87
2022-11-01T13:35:25.082Z,59.89
2022-11-01T13:38:34.864Z,59.83
2022-11-01T13:41:41.910Z,59.01
2022-11-01T13:44:48.855Z,56.60
2022-11-01T13:47:57.773Z,56.64
2022-11-01T13:51:15.151Z,57.76
2022-11-01T13:54:27.361Z,58.54
2022-11-01T13:57:32.901Z,64.92
2022-11-01T14:00:42.727Z,68.06
2022-11-01T14:03:49.935Z,67.01
2022-11-01T14:07:13.936Z,65.37
2022-11-01T14:10:32.678Z,64.37
2022-11-01T14:13:39.608Z,63.47
2022-11-01T14:16:44.780Z,62.81
2022-11-01T14:19:50.604Z,62.28
2022-11-01T14:22:56.703Z,61.83
2022-11-01T14:26:15.411Z,61.07
2022-11-01T14:29:20.604Z,60.63
2022-11-01T14:32:28.077Z,60.71
2022-11-01T14:35:34.544Z,60.71
2022-11-01T14:38:46.036Z,60.60
2022-11-01T14:41:56.142Z,60.45
2022-11-01T14:45:03.960Z,60.31
2022-11-01T14:48:16.352Z,60.38
2022-11-01T14:51:24.995Z,60.23
2022-11-01T14:54:36.029Z,60.13
2022-11-01T14:57:41.156Z,60.11
2022-11-01T15:00:47.159Z,60.00
2022-11-01T15:03:56.632Z,59.93
2022-11-01T15:07:01.884Z,59.80
2022-11-01T15:10:08.621Z,59.70
2022-11-01T15:13:15.445Z,59.60
2022-11-01T15:16:23.327Z,59.60
2022-11-01T15:19:32.917Z,59.51
2022-11-01T15:22:38.579Z,59.51
2022-11-01T15:25:45.731Z,58.71
2022-11-01T15:28:53.579Z,58.41
2022-11-01T15:32:00.063Z,60.46
2022-11-01T15:35:20.089Z,61.62
2022-11-01T15:38:25.348Z,65.25
2022-11-01T15:41:31.997Z,68.70
2022-11-01T15:44:39.660Z,67.38
2022-11-01T15:47:47.795Z,65.69
2022-11-01T15:50:57.512Z,64.54
2022-11-01T15:54:06.154Z,63.68
2022-11-01T15:57:20.666Z,63.04
2022-11-01T16:00:32.035Z,62.51
2022-11-01T16:03:41.060Z,61.95
2022-11-01T16:06:48.137Z,61.61
2022-11-01T16:09:57.966Z,61.45
2022-11-01T16:13:05.105Z,61.24
2022-11-01T16:16:12.293Z,61.01
2022-11-01T16:19:28.840Z,60.75
2022-11-01T16:22:47.605Z,60.45
2022-11-01T16:26:02.142Z,60.27
2022-11-01T16:29:09.961Z,60.13
2022-11-01T16:32:19.761Z,59.89
2022-11-01T16:35:31.730Z,59.69
2022-11-01T16:38:43.035Z,59.50
2022-11-01T16:41:50.438Z,58.90
2022-11-01T16:45:00.241Z,58.45
2022-11-01T16:48:05.803Z,60.53
2022-11-01T16:51:11.444Z,60.75
2022-11-01T16:54:16.893Z,65.89
2022-11-01T16:57:24.727Z,69.17
2022-11-01T17:00:31.635Z,67.10
2022-11-01T17:03:36.770Z,65.52
2022-11-01T17:06:42.059Z,64.49
2022-11-01T17:09:51.943Z,63.69
2022-11-01T17:12:59.197Z,63.16
2022-11-01T17:16:04.913Z,62.49
2022-11-01T17:19:13.347Z,61.91
2022-11-01T17:22:20.766Z,61.45
2022-11-01T17:25:30.561Z,61.06
2022-11-01T17:28:36.038Z,60.72
2022-11-01T17:31:41.296Z,60.50
2022-11-01T17:34:49.379Z,60.43
2022-11-01T17:37:55.549Z,60.25
2022-11-01T17:41:00.973Z,59.97
2022-11-01T17:44:06.518Z,59.92
2022-11-01T17:47:17.475Z,59.95
2022-11-01T17:50:25.077Z,59.95
2022-11-01T17:53:31.131Z,59.83
2022-11-01T17:56:36.560Z,60.04
2022-11-01T17:59:41.909Z,58.94
2022-11-01T18:02:48.959Z,59.71
2022-11-01T18:05:56.181Z,61.24
2022-11-01T18:09:01.482Z,67.67
2022-11-01T18:12:10.250Z,67.52
2022-11-01T18:15:22.162Z,67.17
2022-11-01T18:18:39.699Z,65.80
2022-11-01T18:21:52.444Z,64.84
2022-11-01T18:25:00.121Z,64.15
2022-11-01T18:28:11.896Z,63.54
2022-11-01T18:31:22.004Z,63.16
2022-11-01T18:34:32.718Z,62.88
2022-11-01T18:37:41.596Z,62.68
2022-11-01T18:40:51.963Z,62.18
2022-11-01T18:44:01.929Z,61.74
2022-11-01T18:47:31.182Z,61.50
2022-11-01T18:50:38.498Z,61.71
2022-11-01T18:53:43.928Z,61.71
2022-11-01T18:56:50.353Z,61.38
2022-11-01T18:59:55.800Z,61.20
2022-11-01T19:03:02.952Z,61.22
2022-11-01T19:06:14.319Z,61.12
2022-11-01T19:09:24.227Z,60.97
2022-11-01T19:12:32.451Z,60.64
2022-11-01T19:15:37.929Z,60.66
2022-11-01T19:18:45.943Z,60.65
2022-11-01T19:21:51.113Z,60.49
2022-11-01T19:24:56.428Z,60.22
2022-11-01T19:28:02.457Z,60.08
2022-11-01T19:31:15.020Z,60.05
2022-11-01T19:34:22.745Z,60.00
2022-11-01T19:37:33.090Z,59.99
2022-11-01T19:40:42.487Z,59.81
2022-11-01T19:43:50.776Z,59.69
2022-11-01T19:47:00.273Z,59.65
2022-11-01T19:50:15.242Z,59.70
2022-11-01T19:53:27.288Z,59.70
2022-11-01T19:56:34.724Z,59.70
2022-11-01T19:59:42.259Z,59.85
2022-11-01T20:02:50.067Z,60.01
2022-11-01T20:05:56.507Z,59.97
2022-11-01T20:09:04.222Z,59.83
2022-11-01T20:12:09.715Z,59.72
2022-11-01T20:15:15.178Z,59.65
2022-11-01T20:18:23.120Z,59.65
2022-11-01T20:21:28.779Z,59.71
2022-11-01T20:24:34.063Z,59.59
2022-11-01T20:27:39.351Z,59.66
2022-11-01T20:30:44.572Z,59.86
2022-11-01T20:33:52.495Z,60.07
2022-11-01T20:37:22.865Z,60.46
2022-11-01T20:40:25.032Z,60.65
2022-11-01T20:43:32.890Z,60.71
2022-11-01T20:46:39.732Z,60.70
2022-11-01T20:49:44.983Z,60.71
2022-11-01T20:52:52.461Z,60.86
2022-11-01T20:55:57.816Z,60.91
2022-11-01T20:59:03.553Z,60.82
2022-11-01T21:02:10.306Z,60.88
2022-11-01T21:05:22.108Z,61.01
2022-11-01T21:08:33.592Z,60.95
2022-11-01T21:11:44.692Z,61.38
2022-11-01T21:14:51.053Z,61.72
2022-11-01T21:17:57.396Z,61.73
2022-11-01T21:21:20.079Z,61.87
2022-11-01T21:24:29.725Z,62.18
2022-11-01T21:27:35.128Z,61.53
2022-11-01T21:30:40.454Z,62.33
2022-11-01T21:33:51.439Z,62.67
2022-11-01T21:36:57.464Z,62.71
2022-11-01T21:40:09.595Z,62.68
2022-11-01T21:43:23.982Z,62.52
2022-11-01T21:46:32.703Z,62.47
2022-11-01T21:49:37.901Z,61.97
2022-11-01T21:52:43.148Z,61.59
2022-11-01T21:55:48.602Z,61.78
2022-11-01T21:58:54.331Z,61.23
2022-11-01T22:02:01.551Z,61.18
2022-11-01T22:05:07.703Z,61.16
2022-11-01T22:08:13.027Z,60.95
2022-11-01T22:11:23.247Z,61.02
2022-11-01T22:14:29.141Z,61.24
2022-11-01T22:17:34.396Z,60.77
2022-11-01T22:20:40.203Z,60.24
2022-11-01T22:23:45.614Z,60.00
2022-11-01T22:26:50.825Z,58.07
2022-11-01T22:29:57.561Z,58.60
2022-11-01T22:33:03.605Z,61.32
2022-11-01T22:36:13.098Z,64.11
2022-11-01T22:39:22.261Z,67.75
2022-11-01T22:42:27.608Z,65.59
2022-11-01T22:45:34.305Z,64.12
2022-11-01T22:48:39.578Z,63.75
2022-11-01T22:51:51.570Z,63.16
2022-11-01T22:55:01.836Z,62.17
2022-11-01T22:58:23.365Z,61.14
2022-11-01T23:01:30.671Z,60.21
2022-11-01T23:04:39.438Z,59.58
2022-11-01T23:07:46.391Z,58.46
2022-11-01T23:10:52.747Z,60.16
2022-11-01T23:14:16.046Z,62.29
2022-11-01T23:17:23.449Z,67.40
2022-11-01T23:20:29.864Z,65.92
2022-11-01T23:23:36.153Z,64.11
2022-11-01T23:26:41.434Z,63.35
2022-11-01T23:29:47.949Z,62.76
2022-11-01T23:32:53.256Z,61.86
2022-11-01T23:36:00.947Z,61.31
2022-11-01T23:39:09.084Z,60.75
2022-11-01T23:42:19.315Z,60.55
2022-11-01T23:45:32.243Z,60.50
2022-11-01T23:48:43.107Z,59.88
2022-11-01T23:51:49.783Z,59.54
2022-11-01T23:54:55.327Z,59.55
2022-11-01T23:58:04.215Z,58.86
